createdAt,value
2022-11-30T00:01:11.410Z,5.95
2022-11-30T00:03:39.485Z,5.53
2022-11-30T00:06:08.833Z,5.05
2022-11-30T00:08:37.182Z,5.30
2022-11-30T00:11:11.803Z,6.40
2022-11-30T00:13:39.947Z,6.10
2022-11-30T00:16:08.783Z,5.75
2022-11-30T00:18:37.328Z,5.40
2022-11-30T00:21:08.634Z,6.07
2022-11-30T00:23:38.412Z,5.82
2022-11-30T00:26:08.789Z,5.25
2022-11-30T00:28:38.511Z,6.93
2022-11-30T00:31:08.466Z,5.57
2022-11-30T00:33:38.386Z,5.93
2022-11-30T00:36:08.678Z,6.82
2022-11-30T00:38:36.947Z,5.55
2022-11-30T00:41:05.613Z,4.68
2022-11-30T00:43:33.929Z,5.75
2022-11-30T00:46:03.821Z,5.68
2022-11-30T00:48:32.061Z,5.80
2022-11-30T00:51:00.180Z,6.18
2022-11-30T00:53:28.582Z,5.22
2022-11-30T00:55:56.894Z,6.53
2022-11-30T00:58:24.998Z,4.63
2022-11-30T01:00:53.736Z,5.25
2022-11-30T01:03:23.217Z,5.60
2022-11-30T01:05:51.631Z,6.35
2022-11-30T01:08:19.782Z,6.85
2022-11-30T01:10:53.277Z,4.50
2022-11-30T01:13:21.304Z,6.15
2022-11-30T01:15:49.416Z,6.45
2022-11-30T01:18:17.747Z,5.68
2022-11-30T01:20:47.177Z,5.50
2022-11-30T01:23:15.200Z,4.47
2022-11-30T01:25:43.278Z,5.65
2022-11-30T01:28:11.909Z,5.35
2022-11-30T01:30:40.009Z,5.47
2022-11-30T01:33:08.299Z,6.07
2022-11-30T01:35:36.497Z,6.28
2022-11-30T01:38:05.996Z,5.15
2022-11-30T01:40:34.043Z,5.68
2022-11-30T01:43:02.141Z,6.68
2022-11-30T01:45:30.201Z,6.03
2022-11-30T01:47:58.781Z,5.30
2022-11-30T01:50:30.515Z,5.93
2022-11-30T01:52:59.815Z,5.07
2022-11-30T01:55:33.328Z,4.82
2022-11-30T01:58:06.469Z,5.80
2022-11-30T02:00:34.679Z,5.47
2022-11-30T02:03:08.218Z,5.45
2022-11-30T02:05:38.988Z,4.57
2022-11-30T02:08:07.657Z,5.40
2022-11-30T02:10:40.158Z,5.40
2022-11-30T02:13:34.785Z,4.97
2022-11-30T02:16:11.583Z,4.85
2022-11-30T02:18:50.427Z,3.63
2022-11-30T02:21:23.032Z,5.68
2022-11-30T02:24:18.827Z,4.88
2022-11-30T02:27:05.053Z,4.93
2022-11-30T02:29:37.269Z,4.13
2022-11-30T02:32:10.495Z,4.65
2022-11-30T02:34:39.447Z,5.10
2022-11-30T02:37:10.336Z,5.82
2022-11-30T02:39:38.451Z,4.65
2022-11-30T02:42:11.758Z,4.55
2022-11-30T02:44:41.763Z,4.40
2022-11-30T02:47:17.459Z,4.38
2022-11-30T02:49:51.577Z,4.70
2022-11-30T02:52:22.676Z,4.72
2022-11-30T02:54:50.957Z,3.88
2022-11-30T02:57:18.997Z,3.92
2022-11-30T02:59:48.484Z,4.55
2022-11-30T03:02:16.671Z,4.13
2022-11-30T03:04:45.062Z,4.72
2022-11-30T03:07:13.401Z,4.68
2022-11-30T03:09:41.549Z,3.85
2022-11-30T03:12:09.656Z,3.97
2022-11-30T03:14:37.741Z,4.43
2022-11-30T03:17:07.168Z,4.55
2022-11-30T03:19:35.748Z,4.38
2022-11-30T03:22:04.006Z,4.13
2022-11-30T03:24:32.117Z,4.57
2022-11-30T03:27:00.230Z,6.53
2022-11-30T03:29:28.417Z,5.18
2022-11-30T03:31:56.526Z,4.78
2022-11-30T03:34:27.702Z,4.50
2022-11-30T03:36:56.464Z,4.90
2022-11-30T03:39:25.327Z,4.88
2022-11-30T03:41:53.748Z,6.10
2022-11-30T03:44:21.798Z,4.65
2022-11-30T03:46:49.991Z,4.53
2022-11-30T03:49:18.172Z,4.90
2022-11-30T03:51:47.583Z,4.47
2022-11-30T03:54:15.632Z,5.18
2022-11-30T03:56:43.668Z,4.68
2022-11-30T03:59:11.796Z,3.90
2022-11-30T04:01:41.095Z,4.00
2022-11-30T04:04:09.294Z,4.13
2022-11-30T04:06:38.084Z,3.60
2022-11-30T04:09:07.612Z,4.47
2022-11-30T04:11:36.080Z,4.38
2022-11-30T04:14:04.185Z,4.07
2022-11-30T04:16:32.369Z,4.55
2022-11-30T04:19:00.639Z,3.97
2022-11-30T04:21:28.752Z,4.72
2022-11-30T04:23:56.784Z,3.83
2022-11-30T04:26:26.189Z,5.03
2022-11-30T04:28:54.235Z,4.05
2022-11-30T04:31:22.399Z,4.38
2022-11-30T04:33:54.326Z,4.32
2022-11-30T04:36:22.915Z,3.65
2022-11-30T04:38:51.005Z,3.70
2022-11-30T04:41:19.122Z,3.95
2022-11-30T04:43:48.646Z,3.33
2022-11-30T04:46:16.714Z,3.38
2022-11-30T04:48:44.793Z,3.90
2022-11-30T04:51:12.808Z,4.53
2022-11-30T04:53:40.948Z,5.05
2022-11-30T04:56:10.449Z,4.03
2022-11-30T04:58:39.917Z,5.43
2022-11-30T05:01:09.581Z,4.57
2022-11-30T05:03:37.829Z,4.38
2022-11-30T05:06:06.342Z,3.85
2022-11-30T05:08:34.509Z,4.03
2022-11-30T05:11:02.601Z,4.93
2022-11-30T05:13:30.707Z,3.45
2022-11-30T05:15:58.910Z,5.40
2022-11-30T05:18:29.391Z,4.13
2022-11-30T05:20:57.468Z,5.15
2022-11-30T05:23:25.561Z,3.95
2022-11-30T05:25:53.626Z,4.50
2022-11-30T05:28:21.960Z,4.60
2022-11-30T05:30:50.028Z,4.07
2022-11-30T05:33:18.100Z,4.15
2022-11-30T05:35:47.606Z,4.07
2022-11-30T05:38:18.500Z,3.88
2022-11-30T05:40:46.504Z,4.38
2022-11-30T05:43:14.644Z,4.55
2022-11-30T05:45:42.724Z,4.60
2022-11-30T05:48:10.809Z,5.90
2022-11-30T05:50:38.856Z,5.57
2022-11-30T05:53:08.299Z,5.40
2022-11-30T05:55:37.138Z,6.22
2022-11-30T05:58:05.269Z,4.78
2022-11-30T06:00:33.313Z,4.88
2022-11-30T06:03:04.656Z,5.47
2022-11-30T06:05:36.119Z,5.22
2022-11-30T06:08:04.260Z,5.40
2022-11-30T06:10:33.817Z,6.15
2022-11-30T06:13:07.865Z,5.35
2022-11-30T06:15:35.975Z,5.88
2022-11-30T06:18:04.176Z,6.00
2022-11-30T06:20:32.577Z,5.70
2022-11-30T06:23:00.701Z,5.18
2022-11-30T06:25:29.178Z,4.72
2022-11-30T06:27:58.705Z,5.75
2022-11-30T06:30:26.786Z,4.82
2022-11-30T06:32:55.057Z,6.03
2022-11-30T06:35:23.182Z,4.65
2022-11-30T06:37:51.417Z,4.65
2022-11-30T06:40:19.650Z,6.30
2022-11-30T06:42:47.778Z,5.80
2022-11-30T06:45:17.384Z,4.93
2022-11-30T06:47:45.604Z,5.18
2022-11-30T06:50:15.113Z,6.03
2022-11-30T06:52:43.288Z,4.80
2022-11-30T06:55:11.973Z,4.85
2022-11-30T06:57:40.053Z,4.25
2022-11-30T07:00:09.360Z,5.75
2022-11-30T07:02:39.067Z,4.50
2022-11-30T07:05:07.736Z,5.13
2022-11-30T07:07:37.164Z,4.40
2022-11-30T07:10:05.767Z,4.10
2022-11-30T07:12:36.346Z,5.68
2022-11-30T07:15:05.291Z,5.18
2022-11-30T07:17:33.315Z,5.30
2022-11-30T07:20:02.961Z,4.63
2022-11-30T07:22:31.081Z,3.80
2022-11-30T07:25:16.378Z,5.22
2022-11-30T07:27:44.438Z,5.38
2022-11-30T07:30:13.606Z,5.18
2022-11-30T07:32:41.657Z,5.43
2022-11-30T07:35:11.354Z,5.60
2022-11-30T07:37:40.033Z,4.43
2022-11-30T07:40:09.542Z,3.88
2022-11-30T07:42:37.648Z,4.28
2022-11-30T07:45:06.694Z,4.97
2022-11-30T07:47:34.736Z,5.43
2022-11-30T07:50:02.935Z,3.92
2022-11-30T07:52:32.923Z,6.00
2022-11-30T07:55:01.021Z,4.40
2022-11-30T07:57:29.272Z,4.80
2022-11-30T07:59:57.402Z,5.35
2022-11-30T08:02:25.664Z,6.55
2022-11-30T08:04:55.458Z,4.55
2022-11-30T08:07:23.697Z,4.78
2022-11-30T08:09:53.189Z,4.50
2022-11-30T08:12:21.282Z,4.18
2022-11-30T08:15:17.930Z,4.32
2022-11-30T08:17:37.575Z,4.28
2022-11-30T08:20:06.836Z,3.53
2022-11-30T08:22:35.196Z,4.32
2022-11-30T08:25:05.639Z,3.75
2022-11-30T08:27:33.742Z,4.43
2022-11-30T08:30:01.873Z,3.67
2022-11-30T08:32:30.020Z,4.07
2022-11-30T08:34:58.127Z,3.60
2022-11-30T08:37:26.255Z,3.80
2022-11-30T08:39:54.363Z,3.63
2022-11-30T08:42:23.928Z,4.50
2022-11-30T08:44:52.075Z,3.95
2022-11-30T08:47:20.234Z,4.25
2022-11-30T08:49:48.300Z,3.28
2022-11-30T08:52:18.166Z,3.33
2022-11-30T08:54:48.881Z,4.90
2022-11-30T08:57:18.546Z,3.47
2022-11-30T08:59:48.653Z,3.50
2022-11-30T09:02:19.250Z,3.25
2022-11-30T09:04:51.260Z,4.47
2022-11-30T09:07:19.882Z,3.65
2022-11-30T09:09:48.457Z,3.72
2022-11-30T09:12:16.563Z,2.90
2022-11-30T09:14:45.862Z,4.45
2022-11-30T09:17:16.475Z,3.85
2022-11-30T09:19:44.661Z,3.72
2022-11-30T09:22:12.819Z,4.35
2022-11-30T09:24:41.519Z,4.32
2022-11-30T09:27:09.659Z,4.35
2022-11-30T09:29:38.013Z,4.30
2022-11-30T09:32:06.839Z,3.08
2022-11-30T09:34:36.507Z,3.10
2022-11-30T09:37:04.694Z,3.95
2022-11-30T09:39:32.855Z,3.00
2022-11-30T09:42:25.348Z,3.45
2022-11-30T09:45:01.215Z,2.75
2022-11-30T09:47:45.937Z,3.85
2022-11-30T09:50:18.002Z,2.55
2022-11-30T09:52:49.675Z,3.03
2022-11-30T09:55:26.752Z,3.30
2022-11-30T09:57:58.034Z,3.97
2022-11-30T10:00:26.868Z,2.97
2022-11-30T10:02:57.151Z,4.20
2022-11-30T10:05:29.985Z,2.95
2022-11-30T10:08:18.990Z,3.28
2022-11-30T10:10:57.438Z,3.38
2022-11-30T10:13:44.364Z,3.95
2022-11-30T10:16:23.570Z,2.63
2022-11-30T10:19:00.401Z,4.50
2022-11-30T10:21:42.786Z,2.75
2022-11-30T10:24:25.818Z,3.35
2022-11-30T10:26:56.505Z,3.28
2022-11-30T10:29:31.979Z,3.30
2022-11-30T10:32:02.041Z,3.45
2022-11-30T10:34:34.632Z,3.38
2022-11-30T10:37:12.607Z,3.90
2022-11-30T10:39:47.857Z,3.67
2022-11-30T10:42:20.323Z,3.42
2022-11-30T10:45:00.727Z,3.00
2022-11-30T10:47:33.935Z,3.72
2022-11-30T10:50:02.222Z,3.10
2022-11-30T10:52:36.745Z,4.00
2022-11-30T10:55:14.684Z,2.78
2022-11-30T10:57:43.755Z,3.75
2022-11-30T11:00:16.434Z,4.35
2022-11-30T11:02:48.000Z,3.33
2022-11-30T11:05:19.705Z,3.13
2022-11-30T11:07:55.148Z,2.80
2022-11-30T11:10:28.905Z,3.58
2022-11-30T11:12:57.949Z,3.15
2022-11-30T11:15:27.565Z,3.30
2022-11-30T11:18:20.582Z,3.13
2022-11-30T11:20:50.136Z,2.92
2022-11-30T11:23:33.904Z,3.95
2022-11-30T11:26:02.437Z,3.08
2022-11-30T11:28:33.183Z,2.78
2022-11-30T11:31:01.520Z,2.67
2022-11-30T11:33:30.533Z,3.35
2022-11-30T11:36:15.352Z,3.13
2022-11-30T11:38:46.997Z,3.75
2022-11-30T11:41:24.811Z,2.45
2022-11-30T11:44:05.274Z,2.65
2022-11-30T11:46:36.549Z,2.58
2022-11-30T11:49:06.619Z,2.85
2022-11-30T11:51:36.426Z,2.50
2022-11-30T11:54:17.628Z,2.08
2022-11-30T11:56:46.395Z,2.60
2022-11-30T11:59:19.227Z,2.20
2022-11-30T12:01:53.855Z,3.10
2022-11-30T12:04:43.909Z,2.50
2022-11-30T12:07:21.426Z,2.97
2022-11-30T12:10:00.537Z,2.28
2022-11-30T12:12:29.520Z,2.53
2022-11-30T12:14:57.941Z,2.58
2022-11-30T12:17:43.128Z,2.05
2022-11-30T12:20:20.056Z,2.30
2022-11-30T12:23:02.131Z,2.60
2022-11-30T12:25:36.022Z,2.38
2022-11-30T12:28:18.223Z,3.05
2022-11-30T12:31:00.258Z,1.67
2022-11-30T12:33:42.392Z,2.45
2022-11-30T12:36:17.633Z,2.70
2022-11-30T12:38:50.688Z,1.95
2022-11-30T12:41:33.676Z,2.33
2022-11-30T12:44:28.606Z,2.70
2022-11-30T12:47:03.903Z,2.30
2022-11-30T12:49:45.789Z,2.33
2022-11-30T12:52:28.005Z,2.10
2022-11-30T12:55:07.839Z,2.13
2022-11-30T12:57:45.032Z,2.65
2022-11-30T13:00:18.672Z,1.60
2022-11-30T13:03:18.930Z,1.60
2022-11-30T13:05:50.324Z,1.80
2022-11-30T13:08:23.827Z,1.85
2022-11-30T13:10:56.208Z,2.25
2022-11-30T13:13:30.218Z,2.42
2022-11-30T13:16:00.158Z,2.55
2022-11-30T13:18:28.796Z,1.98
2022-11-30T13:21:06.583Z,2.45
2022-11-30T13:23:40.395Z,1.80
2022-11-30T13:26:18.103Z,2.42
2022-11-30T13:29:13.668Z,1.88
2022-11-30T13:31:47.328Z,2.42
2022-11-30T13:34:26.111Z,2.38
2022-11-30T13:37:03.312Z,2.10
2022-11-30T13:39:45.988Z,2.42
2022-11-30T13:42:35.913Z,2.17
2022-11-30T13:45:26.239Z,1.88
2022-11-30T13:47:57.115Z,1.83
2022-11-30T13:50:36.208Z,1.88
2022-11-30T13:53:34.205Z,2.00
2022-11-30T13:56:05.448Z,1.90
2022-11-30T13:58:34.576Z,1.80
2022-11-30T14:01:26.505Z,2.28
2022-11-30T14:04:23.814Z,1.40
2022-11-30T14:06:55.419Z,1.30
2022-11-30T14:09:58.905Z,1.27
2022-11-30T14:12:59.862Z,2.08
2022-11-30T14:15:45.078Z,1.20
2022-11-30T14:18:22.850Z,1.70
2022-11-30T14:20:55.325Z,2.72
2022-11-30T14:23:28.709Z,2.00
2022-11-30T14:26:01.674Z,1.90
2022-11-30T14:28:38.587Z,2.20
2022-11-30T14:31:10.160Z,2.40
2022-11-30T14:33:47.339Z,2.55
2022-11-30T14:36:15.823Z,3.08
2022-11-30T14:38:44.345Z,2.42
2022-11-30T14:41:24.017Z,3.10
2022-11-30T14:44:07.364Z,3.42
2022-11-30T14:46:36.490Z,3.85
2022-11-30T14:49:24.715Z,3.30
2022-11-30T14:51:55.231Z,2.90
2022-11-30T14:54:37.671Z,2.70
2022-11-30T14:57:18.678Z,3.05
2022-11-30T14:59:49.764Z,2.60
2022-11-30T15:02:30.046Z,2.85
2022-11-30T15:05:00.796Z,2.65
2022-11-30T15:07:30.703Z,2.88
2022-11-30T15:10:04.953Z,3.30
2022-11-30T15:12:34.320Z,3.35
2022-11-30T15:15:04.333Z,3.15
2022-11-30T15:17:32.514Z,3.05
2022-11-30T15:20:02.125Z,2.92
2022-11-30T15:22:35.275Z,3.10
2022-11-30T15:25:03.607Z,3.08
2022-11-30T15:27:32.129Z,3.85
2022-11-30T15:30:01.943Z,3.10
2022-11-30T15:32:30.576Z,3.63
2022-11-30T15:35:02.070Z,3.08
2022-11-30T15:37:35.475Z,3.13
2022-11-30T15:40:07.010Z,2.85
2022-11-30T15:42:40.318Z,3.65
2022-11-30T15:45:16.393Z,2.80
2022-11-30T15:47:44.904Z,3.53
2022-11-30T15:50:40.124Z,4.00
2022-11-30T15:53:27.644Z,3.88
2022-11-30T15:55:57.662Z,3.35
2022-11-30T15:58:35.193Z,3.30
2022-11-30T16:01:07.015Z,2.85
2022-11-30T16:03:37.371Z,4.00
2022-11-30T16:06:07.366Z,3.25
2022-11-30T16:08:35.474Z,3.17
2022-11-30T16:11:08.126Z,4.00
2022-11-30T16:13:36.540Z,3.58
2022-11-30T16:16:12.903Z,3.80
2022-11-30T16:18:41.311Z,4.03
2022-11-30T16:21:16.196Z,3.67
2022-11-30T16:23:44.877Z,3.50
2022-11-30T16:26:36.010Z,5.05
2022-11-30T16:29:04.619Z,4.53
2022-11-30T16:31:33.264Z,3.90
2022-11-30T16:34:01.957Z,4.05
2022-11-30T16:36:33.591Z,3.90
2022-11-30T16:39:01.884Z,3.72
2022-11-30T16:41:30.052Z,4.75
2022-11-30T16:43:58.967Z,3.85
2022-11-30T16:46:28.482Z,4.88
2022-11-30T16:48:57.102Z,4.30
2022-11-30T16:51:27.481Z,5.05
2022-11-30T16:53:57.865Z,4.30
2022-11-30T16:56:26.403Z,4.25
2022-11-30T16:58:54.962Z,4.47
2022-11-30T17:01:34.541Z,3.78
2022-11-30T17:04:11.922Z,4.65
2022-11-30T17:06:40.477Z,3.83
2022-11-30T17:09:13.757Z,5.30
2022-11-30T17:11:43.281Z,5.47
2022-11-30T17:14:13.473Z,4.45
2022-11-30T17:16:41.853Z,4.82
2022-11-30T17:19:10.288Z,4.15
2022-11-30T17:21:40.307Z,4.15
2022-11-30T17:24:08.659Z,5.93
2022-11-30T17:26:38.421Z,4.50
2022-11-30T17:29:06.753Z,4.47
2022-11-30T17:31:35.638Z,4.43
2022-11-30T17:34:03.809Z,4.63
2022-11-30T17:36:31.985Z,3.80
2022-11-30T17:39:00.171Z,3.90
2022-11-30T17:41:28.495Z,4.93
2022-11-30T17:43:58.044Z,3.35
2022-11-30T17:46:28.467Z,5.00
2022-11-30T17:48:57.410Z,4.88
2022-11-30T17:51:25.748Z,3.83
2022-11-30T17:53:54.071Z,4.82
2022-11-30T17:56:22.252Z,4.45
2022-11-30T17:58:50.724Z,4.25
2022-11-30T18:01:22.341Z,4.22
2022-11-30T18:03:51.920Z,4.93
2022-11-30T18:06:21.010Z,4.30
2022-11-30T18:08:49.377Z,4.25
2022-11-30T18:11:20.356Z,3.78
2022-11-30T18:13:50.134Z,3.65
2022-11-30T18:16:21.933Z,4.53
2022-11-30T18:18:50.421Z,3.95
2022-11-30T18:21:20.501Z,3.95
2022-11-30T18:23:49.780Z,4.50
2022-11-30T18:26:20.408Z,3.85
2022-11-30T18:28:52.887Z,3.47
2022-11-30T18:31:22.657Z,3.33
2022-11-30T18:33:54.672Z,3.30
2022-11-30T18:36:22.804Z,3.85
2022-11-30T18:38:51.111Z,3.65
2022-11-30T18:41:19.318Z,3.15
2022-11-30T18:43:47.457Z,3.50
2022-11-30T18:46:15.952Z,2.67
2022-11-30T18:48:51.394Z,2.97
2022-11-30T18:51:21.842Z,3.40
2022-11-30T18:53:50.174Z,3.70
2022-11-30T18:56:20.371Z,3.33
2022-11-30T18:58:49.595Z,2.50
2022-11-30T19:01:20.116Z,3.88
2022-11-30T19:03:53.764Z,4.00
2022-11-30T19:06:22.589Z,3.63
2022-11-30T19:08:50.915Z,3.42
2022-11-30T19:11:19.891Z,2.40
2022-11-30T19:13:48.880Z,3.30
2022-11-30T19:16:19.045Z,3.22
2022-11-30T19:18:49.049Z,2.75
2022-11-30T19:21:20.933Z,2.28
2022-11-30T19:23:51.643Z,2.95
2022-11-30T19:26:21.139Z,2.80
2022-11-30T19:28:50.338Z,2.92
2022-11-30T19:31:21.257Z,3.72
2022-11-30T19:33:52.464Z,2.85
2022-11-30T19:36:24.208Z,3.38
2022-11-30T19:38:52.793Z,3.05
2022-11-30T19:41:27.956Z,3.05
2022-11-30T19:44:04.545Z,3.15
2022-11-30T19:46:35.000Z,3.03
2022-11-30T19:49:04.008Z,3.22
2022-11-30T19:51:34.227Z,3.63
2022-11-30T19:54:04.976Z,3.05
2022-11-30T19:56:35.941Z,3.00
2022-11-30T19:59:06.107Z,2.80
2022-11-30T20:01:35.960Z,3.00
2022-11-30T20:04:05.147Z,3.97
2022-11-30T20:06:37.453Z,3.88
2022-11-30T20:09:06.928Z,3.20
2022-11-30T20:11:36.705Z,3.22
2022-11-30T20:14:05.648Z,2.83
2022-11-30T20:16:34.251Z,2.90
2022-11-30T20:19:03.673Z,2.83
2022-11-30T20:21:35.782Z,3.13
2022-11-30T20:24:06.527Z,3.38
2022-11-30T20:26:37.114Z,3.92
2022-11-30T20:29:07.925Z,3.13
2022-11-30T20:31:38.227Z,2.92
2022-11-30T20:34:08.423Z,3.35
2022-11-30T20:36:39.165Z,2.80
2022-11-30T20:39:09.070Z,3.33
2022-11-30T20:41:38.021Z,3.33
2022-11-30T20:44:06.939Z,3.22
2022-11-30T20:46:36.987Z,2.92
2022-11-30T20:49:13.036Z,2.53
2022-11-30T20:51:43.136Z,2.70
2022-11-30T20:54:12.623Z,3.65
2022-11-30T20:56:41.944Z,3.22
2022-11-30T20:59:14.132Z,3.05
2022-11-30T21:01:44.681Z,2.80
2022-11-30T21:04:13.324Z,2.95
2022-11-30T21:06:46.120Z,2.67
2022-11-30T21:09:17.489Z,2.88
2022-11-30T21:11:49.110Z,2.72
2022-11-30T21:14:17.950Z,3.00
2022-11-30T21:16:46.305Z,3.42
2022-11-30T21:19:15.682Z,4.30
2022-11-30T21:21:45.630Z,3.95
2022-11-30T21:24:14.434Z,3.90
2022-11-30T21:26:43.884Z,3.92
2022-11-30T21:29:14.158Z,4.00
2022-11-30T21:31:43.272Z,4.25
2022-11-30T21:34:11.745Z,4.13
2022-11-30T21:36:40.464Z,4.18
2022-11-30T21:39:13.609Z,4.72
2022-11-30T21:41:42.985Z,3.20
2022-11-30T21:44:14.125Z,4.72
2022-11-30T21:46:42.822Z,4.00
2022-11-30T21:49:11.014Z,4.38
2022-11-30T21:51:39.382Z,4.43
2022-11-30T21:54:12.448Z,4.72
2022-11-30T21:56:42.709Z,4.97
2022-11-30T21:59:12.572Z,5.40
2022-11-30T22:01:42.804Z,5.80
2022-11-30T22:04:12.731Z,6.35
2022-11-30T22:06:41.777Z,5.68
2022-11-30T22:09:14.223Z,5.53
2022-11-30T22:11:45.128Z,5.72
2022-11-30T22:14:15.973Z,5.43
2022-11-30T22:16:44.642Z,5.03
2022-11-30T22:19:12.815Z,5.80
2022-11-30T22:21:45.342Z,5.63
2022-11-30T22:24:18.503Z,6.68
2022-11-30T22:26:49.100Z,5.25
2022-11-30T22:29:19.294Z,5.15
2022-11-30T22:31:50.235Z,5.63
2022-11-30T22:34:18.666Z,5.28
2022-11-30T22:36:48.333Z,4.57
2022-11-30T22:39:19.818Z,4.70
2022-11-30T22:41:54.580Z,5.00
2022-11-30T22:44:24.690Z,6.18
2022-11-30T22:46:52.971Z,6.22
2022-11-30T22:49:22.135Z,5.70
2022-11-30T22:51:50.954Z,4.70
2022-11-30T22:54:20.540Z,5.40
2022-11-30T22:56:48.761Z,6.45
2022-11-30T22:59:17.170Z,5.32
2022-11-30T23:01:46.854Z,5.18
2022-11-30T23:04:16.746Z,5.07
2022-11-30T23:06:45.782Z,5.05
2022-11-30T23:09:15.882Z,5.72
2022-11-30T23:11:46.054Z,4.85
2022-11-30T23:14:16.224Z,5.00
2022-11-30T23:16:45.476Z,4.57
2022-11-30T23:19:15.073Z,5.70
2022-11-30T23:21:45.445Z,5.20
2022-11-30T23:24:18.021Z,5.25
2022-11-30T23:26:48.151Z,5.20
2022-11-30T23:29:17.958Z,5.40
2022-11-30T23:31:47.406Z,5.20
2022-11-30T23:34:17.796Z,4.97
2022-11-30T23:36:46.267Z,4.40
2022-11-30T23:39:16.607Z,5.00
2022-11-30T23:41:45.162Z,4.75
2022-11-30T23:44:15.291Z,5.35
2022-11-30T23:46:43.585Z,4.53
2022-11-30T23:49:14.073Z,5.55
2022-11-30T23:51:42.252Z,5.60
2022-11-30T23:54:10.887Z,4.53
2022-11-30T23:56:38.973Z,6.20
2022-11-30T23:59:06.999Z,5.35
